createdAt,value
2023-06-11T00:01:09.896Z,47.77
2023-06-11T00:03:38.059Z,47.95
2023-06-11T00:06:06.198Z,48.04
2023-06-11T00:08:34.111Z,48.24
2023-06-11T00:11:01.957Z,48.21
2023-06-11T00:13:30.521Z,48.52
2023-06-11T00:16:00.707Z,48.44
2023-06-11T00:18:28.688Z,48.70
2023-06-11T00:20:59.384Z,48.75
2023-06-11T00:23:27.338Z,49.01
2023-06-11T00:25:55.155Z,49.27
2023-06-11T00:28:22.976Z,49.21
2023-06-11T00:30:50.985Z,49.45
2023-06-11T00:33:20.158Z,49.60
2023-06-11T00:35:47.884Z,49.65
2023-06-11T00:38:18.447Z,50.48
2023-06-11T00:40:48.530Z,50.00
2023-06-11T00:43:18.339Z,50.31
2023-06-11T00:45:46.545Z,50.41
2023-06-11T00:48:14.330Z,50.68
2023-06-11T00:50:48.621Z,50.64
2023-06-11T00:53:16.555Z,50.74
2023-06-11T00:55:44.331Z,51.11
2023-06-11T00:58:15.448Z,51.00
2023-06-11T01:00:46.662Z,51.08
2023-06-11T01:03:18.537Z,51.38
2023-06-11T01:05:53.389Z,51.69
2023-06-11T01:08:21.205Z,51.89
2023-06-11T01:10:50.493Z,51.96
2023-06-11T01:13:18.393Z,51.99
2023-06-11T01:15:46.187Z,52.25
2023-06-11T01:18:20.558Z,52.45
2023-06-11T01:20:57.568Z,52.35
2023-06-11T01:23:34.735Z,52.54
2023-06-11T01:26:27.145Z,52.84
2023-06-11T01:28:59.445Z,52.91
2023-06-11T01:31:30.691Z,53.32
2023-06-11T01:33:59.001Z,53.29
2023-06-11T01:36:30.034Z,53.70
2023-06-11T01:38:59.994Z,53.74
2023-06-11T01:41:28.372Z,53.95
2023-06-11T01:43:57.515Z,54.17
2023-06-11T01:46:25.500Z,54.08
2023-06-11T01:48:53.293Z,54.58
2023-06-11T01:51:23.075Z,55.19
2023-06-11T01:53:50.904Z,54.55
2023-06-11T01:56:18.763Z,54.79
2023-06-11T01:58:47.253Z,55.00
2023-06-11T02:01:16.472Z,55.09
2023-06-11T02:03:44.481Z,55.30
2023-06-11T02:06:12.709Z,55.71
2023-06-11T02:08:40.492Z,55.60
2023-06-11T02:11:08.242Z,55.89
2023-06-11T02:13:36.007Z,56.33
2023-06-11T02:16:03.887Z,56.54
2023-06-11T02:18:33.001Z,56.73
2023-06-11T02:21:00.803Z,57.23
2023-06-11T02:23:29.925Z,57.70
2023-06-11T02:25:57.734Z,57.47
2023-06-11T02:28:25.553Z,58.17
2023-06-11T02:30:53.306Z,58.48
2023-06-11T02:33:21.169Z,58.76
2023-06-11T02:35:50.577Z,58.74
2023-06-11T02:38:18.441Z,59.13
2023-06-11T02:40:46.296Z,59.42
2023-06-11T02:43:14.044Z,59.17
2023-06-11T02:45:41.849Z,59.31
2023-06-11T02:48:09.798Z,59.55
2023-06-11T02:50:37.638Z,59.09
2023-06-11T02:53:06.793Z,59.66
2023-06-11T02:55:34.534Z,59.35
2023-06-11T02:58:02.312Z,59.68
2023-06-11T03:00:31.246Z,59.54
2023-06-11T03:02:59.130Z,59.68
2023-06-11T03:05:27.017Z,59.88
2023-06-11T03:07:54.947Z,59.70
2023-06-11T03:10:25.069Z,59.83
2023-06-11T03:12:52.899Z,60.06
2023-06-11T03:15:20.887Z,60.34
2023-06-11T03:17:48.687Z,60.60
2023-06-11T03:20:16.629Z,60.82
2023-06-11T03:22:44.431Z,60.57
2023-06-11T03:25:12.530Z,60.94
2023-06-11T03:27:41.877Z,61.10
2023-06-11T03:30:12.594Z,61.20
2023-06-11T03:32:40.784Z,61.43
2023-06-11T03:35:09.020Z,61.50
2023-06-11T03:37:37.050Z,61.45
2023-06-11T03:40:05.534Z,61.70
2023-06-11T03:42:33.460Z,61.96
2023-06-11T03:45:02.613Z,61.71
2023-06-11T03:47:30.570Z,61.86
2023-06-11T03:49:58.356Z,62.02
2023-06-11T03:52:26.141Z,61.93
2023-06-11T03:54:53.912Z,62.03
2023-06-11T03:57:21.685Z,62.17
2023-06-11T03:59:49.447Z,62.22
2023-06-11T04:02:18.809Z,62.51
2023-06-11T04:04:46.828Z,62.40
2023-06-11T04:07:14.693Z,62.85
2023-06-11T04:09:42.453Z,62.98
2023-06-11T04:12:11.094Z,63.14
2023-06-11T04:14:39.297Z,63.49
2023-06-11T04:17:07.891Z,63.77
2023-06-11T04:19:37.069Z,64.10
2023-06-11T04:22:05.189Z,64.09
2023-06-11T04:24:33.042Z,64.00
2023-06-11T04:27:00.884Z,64.61
2023-06-11T04:29:30.550Z,64.65
2023-06-11T04:32:03.037Z,65.08
2023-06-11T04:34:31.152Z,65.19
2023-06-11T04:37:00.351Z,65.02
2023-06-11T04:39:28.948Z,65.07
2023-06-11T04:41:56.784Z,65.26
2023-06-11T04:44:24.775Z,65.21
2023-06-11T04:46:59.109Z,65.41
2023-06-11T04:49:28.312Z,65.28
2023-06-11T04:51:58.597Z,65.47
2023-06-11T04:54:28.463Z,65.39
2023-06-11T04:56:56.442Z,65.57
2023-06-11T04:59:24.233Z,65.44
2023-06-11T05:01:55.022Z,65.51
2023-06-11T05:04:23.807Z,65.48
2023-06-11T05:06:51.613Z,65.74
2023-06-11T05:09:19.437Z,65.99
2023-06-11T05:11:48.578Z,66.13
2023-06-11T05:14:16.510Z,66.09
2023-06-11T05:16:44.369Z,66.22
2023-06-11T05:19:12.250Z,65.89
2023-06-11T05:21:40.491Z,65.80
2023-06-11T05:24:09.444Z,65.78
2023-06-11T05:26:38.536Z,65.64
2023-06-11T05:29:07.740Z,65.75
2023-06-11T05:31:37.093Z,65.14
2023-06-11T05:34:05.063Z,64.95
2023-06-11T05:36:33.511Z,65.17
2023-06-11T05:39:01.359Z,64.97
2023-06-11T05:41:29.160Z,64.91
2023-06-11T05:43:57.118Z,64.80
2023-06-11T05:46:26.775Z,64.17
2023-06-11T05:48:54.653Z,64.18
2023-06-11T05:51:22.456Z,64.09
2023-06-11T05:53:50.204Z,63.73
2023-06-11T05:56:18.023Z,64.11
2023-06-11T05:58:45.880Z,63.78
2023-06-11T06:01:13.657Z,63.37
2023-06-11T06:03:42.953Z,63.31
2023-06-11T06:06:11.056Z,62.74
2023-06-11T06:08:38.870Z,61.98
2023-06-11T06:11:06.634Z,62.04
2023-06-11T06:13:34.460Z,61.56
2023-06-11T06:16:02.307Z,61.55
2023-06-11T06:18:30.906Z,61.21
2023-06-11T06:21:00.151Z,60.95
2023-06-11T06:23:28.029Z,60.41
2023-06-11T06:25:55.826Z,60.45
2023-06-11T06:28:23.591Z,60.14
2023-06-11T06:30:51.426Z,60.52
2023-06-11T06:33:19.294Z,60.12
2023-06-11T06:35:47.105Z,59.33
2023-06-11T06:38:16.375Z,59.27
2023-06-11T06:40:44.222Z,58.93
2023-06-11T06:43:12.039Z,58.58
2023-06-11T06:45:40.287Z,57.55
2023-06-11T06:48:08.198Z,57.18
2023-06-11T06:50:36.054Z,57.33
2023-06-11T06:53:03.964Z,56.65
2023-06-11T06:55:33.183Z,56.25
2023-06-11T06:58:01.279Z,55.91
2023-06-11T07:00:29.064Z,54.81
2023-06-11T07:02:56.875Z,55.36
2023-06-11T07:05:24.752Z,55.43
2023-06-11T07:07:52.554Z,54.56
2023-06-11T07:10:20.581Z,54.39
2023-06-11T07:12:49.707Z,54.27
2023-06-11T07:15:17.584Z,54.55
2023-06-11T07:17:45.465Z,54.70
2023-06-11T07:20:14.300Z,53.61
2023-06-11T07:22:42.373Z,53.32
2023-06-11T07:25:10.829Z,53.04
2023-06-11T07:27:38.619Z,53.67
2023-06-11T07:30:09.475Z,52.56
2023-06-11T07:32:37.910Z,52.24
2023-06-11T07:35:06.769Z,52.96
2023-06-11T07:37:34.589Z,53.06
2023-06-11T07:40:02.448Z,52.68
2023-06-11T07:42:30.247Z,51.42
2023-06-11T07:44:58.020Z,51.21
2023-06-11T07:47:27.332Z,51.13
2023-06-11T07:49:55.174Z,51.59
2023-06-11T07:52:23.052Z,50.89
2023-06-11T07:54:50.910Z,51.67
2023-06-11T07:57:18.826Z,50.77
2023-06-11T07:59:46.680Z,50.74
2023-06-11T08:02:15.699Z,50.50
2023-06-11T08:04:45.117Z,49.44
2023-06-11T08:07:13.517Z,48.62
2023-06-11T08:09:41.678Z,48.22
2023-06-11T08:12:12.884Z,48.73
2023-06-11T08:14:40.759Z,48.51
2023-06-11T08:17:09.764Z,47.19
2023-06-11T08:19:37.565Z,47.33
2023-06-11T08:22:07.174Z,47.87
2023-06-11T08:24:34.942Z,47.67
2023-06-11T08:27:03.604Z,47.63
2023-06-11T08:29:32.112Z,46.79
2023-06-11T08:31:59.939Z,46.38
2023-06-11T08:34:27.734Z,46.44
2023-06-11T08:36:55.976Z,46.74
2023-06-11T08:39:25.234Z,46.69
2023-06-11T08:41:53.044Z,46.83
2023-06-11T08:44:21.316Z,46.47
2023-06-11T08:46:51.415Z,46.55
2023-06-11T08:49:22.393Z,45.95
2023-06-11T08:51:50.882Z,44.57
2023-06-11T08:54:19.990Z,44.81
2023-06-11T08:56:50.331Z,46.28
2023-06-11T08:59:20.191Z,45.52
2023-06-11T09:01:51.995Z,45.13
2023-06-11T09:04:20.311Z,46.02
2023-06-11T09:06:52.396Z,45.12
2023-06-11T09:09:20.375Z,44.74
2023-06-11T09:11:49.686Z,44.95
2023-06-11T09:14:17.515Z,44.74
2023-06-11T09:16:47.447Z,43.99
2023-06-11T09:19:16.950Z,43.91
2023-06-11T09:21:52.117Z,44.21
2023-06-11T09:24:20.902Z,43.20
2023-06-11T09:26:55.413Z,43.91
2023-06-11T09:29:23.678Z,44.32
2023-06-11T09:32:04.583Z,43.95
2023-06-11T09:34:35.831Z,43.71
2023-06-11T09:37:04.455Z,42.81
2023-06-11T09:39:32.555Z,42.73
2023-06-11T09:42:01.780Z,41.98
2023-06-11T09:44:33.938Z,42.41
2023-06-11T09:47:03.755Z,41.69
2023-06-11T09:49:31.595Z,41.41
2023-06-11T09:52:01.050Z,41.71
2023-06-11T09:54:29.518Z,42.03
2023-06-11T09:56:57.763Z,41.57
2023-06-11T09:59:27.676Z,41.23
2023-06-11T10:01:55.678Z,40.63
2023-06-11T10:04:23.622Z,41.06
2023-06-11T10:06:52.595Z,41.63
2023-06-11T10:09:21.545Z,40.87
2023-06-11T10:11:49.946Z,40.83
2023-06-11T10:14:18.232Z,40.61
2023-06-11T10:16:52.226Z,40.79
2023-06-11T10:19:20.506Z,40.96
2023-06-11T10:21:51.446Z,40.43
2023-06-11T10:24:24.096Z,40.73
2023-06-11T10:27:06.220Z,40.68
2023-06-11T10:29:38.838Z,39.46
2023-06-11T10:32:17.870Z,38.92
2023-06-11T10:34:46.686Z,38.77
2023-06-11T10:37:14.566Z,39.56
2023-06-11T10:39:52.730Z,37.45
2023-06-11T10:42:28.584Z,38.35
2023-06-11T10:45:00.698Z,38.76
2023-06-11T10:47:31.657Z,36.55
2023-06-11T10:50:10.541Z,36.53
2023-06-11T10:52:50.280Z,36.89
2023-06-11T10:55:18.731Z,36.93
2023-06-11T10:57:46.749Z,37.41
2023-06-11T11:00:15.373Z,36.25
2023-06-11T11:02:45.720Z,36.46
2023-06-11T11:05:13.845Z,37.34
2023-06-11T11:07:45.823Z,36.27
2023-06-11T11:10:16.622Z,37.01
2023-06-11T11:12:46.620Z,36.40
2023-06-11T11:15:15.073Z,36.16
2023-06-11T11:17:45.780Z,35.15
2023-06-11T11:20:18.418Z,34.68
2023-06-11T11:22:52.900Z,34.77
2023-06-11T11:25:23.420Z,34.73
2023-06-11T11:27:51.286Z,35.47
2023-06-11T11:30:19.568Z,34.82
2023-06-11T11:32:48.882Z,34.60
2023-06-11T11:35:17.001Z,35.12
2023-06-11T11:37:47.507Z,33.96
2023-06-11T11:40:15.511Z,33.87
2023-06-11T11:42:47.665Z,34.26
2023-06-11T11:45:16.087Z,33.55
2023-06-11T11:47:45.304Z,33.43
2023-06-11T11:50:24.038Z,33.58
2023-06-11T11:53:04.590Z,32.56
2023-06-11T11:55:35.403Z,32.66
2023-06-11T11:58:07.215Z,32.44
2023-06-11T12:00:35.756Z,32.77
2023-06-11T12:03:11.205Z,32.01
2023-06-11T12:05:41.057Z,31.82
2023-06-11T12:08:09.520Z,31.92
2023-06-11T12:10:37.298Z,31.65
2023-06-11T12:13:06.916Z,32.07
2023-06-11T12:15:34.801Z,31.36
2023-06-11T12:18:02.638Z,31.55
2023-06-11T12:20:30.544Z,31.11
2023-06-11T12:22:59.830Z,30.57
2023-06-11T12:25:27.961Z,31.23
2023-06-11T12:27:56.314Z,30.01
2023-06-11T12:30:24.136Z,29.83
2023-06-11T12:32:53.847Z,30.13
2023-06-11T12:35:21.776Z,30.28
2023-06-11T12:37:49.632Z,29.41
2023-06-11T12:40:18.957Z,29.94
2023-06-11T12:42:47.023Z,29.70
2023-06-11T12:45:15.985Z,30.05
2023-06-11T12:47:44.080Z,30.93
2023-06-11T12:50:13.696Z,30.72
2023-06-11T12:52:43.937Z,30.62
2023-06-11T12:55:11.768Z,30.57
2023-06-11T12:57:40.895Z,29.63
2023-06-11T13:00:10.846Z,29.15
2023-06-11T13:02:39.201Z,27.77
2023-06-11T13:05:07.960Z,27.44
2023-06-11T13:07:35.820Z,28.14
2023-06-11T13:10:03.799Z,27.76
2023-06-11T13:12:32.152Z,27.88
2023-06-11T13:15:01.333Z,26.95
2023-06-11T13:17:29.137Z,27.77
2023-06-11T13:19:57.237Z,26.20
2023-06-11T13:22:25.201Z,26.77
2023-06-11T13:24:53.647Z,26.10
2023-06-11T13:27:23.892Z,26.55
2023-06-11T13:29:51.670Z,26.37
2023-06-11T13:32:20.945Z,25.54
2023-06-11T13:34:48.801Z,26.38
2023-06-11T13:37:16.692Z,25.67
2023-06-11T13:39:44.510Z,26.61
2023-06-11T13:42:12.515Z,25.93
2023-06-11T13:44:40.314Z,26.34
2023-06-11T13:47:09.301Z,24.87
2023-06-11T13:49:38.690Z,25.65
2023-06-11T13:52:07.072Z,25.94
2023-06-11T13:54:34.866Z,25.55
2023-06-11T13:57:02.962Z,25.33
2023-06-11T13:59:32.423Z,25.26
2023-06-11T14:02:02.662Z,25.32
2023-06-11T14:04:30.698Z,25.33
2023-06-11T14:07:00.268Z,24.55
2023-06-11T14:09:28.093Z,24.89
2023-06-11T14:11:55.936Z,24.18
2023-06-11T14:14:30.931Z,24.89
2023-06-11T14:16:59.898Z,24.77
2023-06-11T14:19:27.785Z,25.87
2023-06-11T14:21:59.810Z,26.63
2023-06-11T14:24:27.679Z,26.88
2023-06-11T14:26:56.340Z,26.66
2023-06-11T14:29:24.271Z,26.86
2023-06-11T14:31:52.181Z,27.21
2023-06-11T14:34:19.990Z,25.58
2023-06-11T14:36:47.774Z,25.51
2023-06-11T14:39:18.842Z,24.28
2023-06-11T14:41:46.834Z,24.71
2023-06-11T14:44:15.323Z,24.96
2023-06-11T14:46:43.403Z,24.62
2023-06-11T14:49:12.202Z,25.02
2023-06-11T14:51:40.056Z,24.88
2023-06-11T14:54:07.843Z,24.86
2023-06-11T14:56:37.040Z,25.46
2023-06-11T14:59:04.876Z,24.29
2023-06-11T15:01:32.725Z,24.08
2023-06-11T15:04:00.636Z,24.91
2023-06-11T15:06:28.407Z,25.13
2023-06-11T15:08:56.211Z,24.17
2023-06-11T15:11:29.679Z,25.56
2023-06-11T15:13:59.876Z,24.91
2023-06-11T15:16:28.339Z,24.55
2023-06-11T15:18:56.320Z,25.19
2023-06-11T15:21:24.309Z,25.74
2023-06-11T15:23:52.161Z,25.29
2023-06-11T15:26:20.051Z,24.10
2023-06-11T15:28:47.856Z,24.50
2023-06-11T15:31:19.229Z,24.90
2023-06-11T15:34:20.839Z,23.93
2023-06-11T15:37:18.268Z,24.31
2023-06-11T15:39:50.963Z,24.48
2023-06-11T15:42:19.507Z,25.86
2023-06-11T15:44:49.494Z,25.56
2023-06-11T15:47:19.373Z,24.55
2023-06-11T15:49:47.336Z,24.94
2023-06-11T15:52:15.277Z,25.67
2023-06-11T15:54:43.080Z,24.85
2023-06-11T15:57:11.046Z,25.00
2023-06-11T15:59:39.937Z,24.47
2023-06-11T16:02:07.883Z,25.39
2023-06-11T16:04:37.809Z,25.01
2023-06-11T16:07:07.937Z,25.31
2023-06-11T16:09:36.116Z,25.49
2023-06-11T16:12:04.483Z,25.03
2023-06-11T16:14:33.081Z,25.88
2023-06-11T16:17:00.864Z,24.59
2023-06-11T16:19:28.653Z,25.04
2023-06-11T16:21:57.939Z,25.11
2023-06-11T16:24:25.820Z,24.97
2023-06-11T16:26:53.640Z,25.43
2023-06-11T16:29:21.509Z,25.14
2023-06-11T16:31:49.423Z,24.71
2023-06-11T16:34:17.294Z,25.16
2023-06-11T16:36:45.109Z,25.45
2023-06-11T16:39:26.668Z,25.57
2023-06-11T16:41:56.136Z,25.41
2023-06-11T16:44:24.070Z,25.59
2023-06-11T16:46:52.061Z,25.60
2023-06-11T16:49:19.967Z,25.96
2023-06-11T16:51:47.768Z,25.58
2023-06-11T16:54:18.695Z,25.59
2023-06-11T16:56:47.164Z,25.33
2023-06-11T16:59:15.076Z,25.13
2023-06-11T17:01:43.255Z,25.48
2023-06-11T17:04:11.174Z,25.36
2023-06-11T17:06:39.194Z,26.16
2023-06-11T17:09:06.956Z,25.85
2023-06-11T17:11:36.208Z,26.13
2023-06-11T17:14:04.020Z,26.23
2023-06-11T17:16:31.958Z,26.67
2023-06-11T17:18:59.830Z,26.50
2023-06-11T17:21:27.600Z,26.06
2023-06-11T17:23:58.331Z,26.19
2023-06-11T17:26:28.295Z,26.50
2023-06-11T17:28:57.562Z,26.39
2023-06-11T17:31:25.421Z,26.86
2023-06-11T17:33:53.222Z,26.58
2023-06-11T17:36:21.050Z,26.68
2023-06-11T17:38:48.912Z,26.98
2023-06-11T17:41:16.677Z,26.68
2023-06-11T17:43:44.491Z,26.70
2023-06-11T17:46:16.506Z,27.07
2023-06-11T17:48:44.461Z,27.25
2023-06-11T17:51:12.307Z,27.49
2023-06-11T17:53:40.140Z,27.10
2023-06-11T17:56:07.919Z,28.56
2023-06-11T17:58:40.676Z,28.68
2023-06-11T18:01:08.955Z,29.13
2023-06-11T18:03:38.260Z,29.07
2023-06-11T18:06:06.186Z,28.20
2023-06-11T18:08:34.110Z,28.74
2023-06-11T18:11:01.936Z,28.27
2023-06-11T18:13:29.708Z,28.72
2023-06-11T18:15:57.502Z,29.13
2023-06-11T18:18:25.283Z,29.02
2023-06-11T18:20:54.733Z,29.24
2023-06-11T18:23:22.518Z,29.51
2023-06-11T18:25:51.659Z,29.62
2023-06-11T18:28:20.242Z,30.21
2023-06-11T18:30:48.184Z,29.89
2023-06-11T18:33:15.992Z,29.72
2023-06-11T18:35:43.805Z,30.00
2023-06-11T18:38:12.946Z,30.22
2023-06-11T18:40:40.814Z,30.20
2023-06-11T18:43:08.643Z,30.51
2023-06-11T18:45:36.584Z,30.33
2023-06-11T18:48:04.650Z,31.01
2023-06-11T18:50:32.508Z,30.55
2023-06-11T18:53:00.398Z,30.45
2023-06-11T18:55:30.835Z,31.00
2023-06-11T18:57:58.953Z,30.74
2023-06-11T19:00:27.345Z,30.95
2023-06-11T19:02:55.303Z,30.72
2023-06-11T19:05:23.134Z,31.14
2023-06-11T19:07:50.994Z,31.36
2023-06-11T19:10:23.793Z,31.53
2023-06-11T19:12:54.945Z,31.91
2023-06-11T19:15:23.507Z,32.04
2023-06-11T19:17:51.419Z,32.36
2023-06-11T19:20:19.265Z,32.91
2023-06-11T19:22:47.105Z,32.42
2023-06-11T19:25:15.033Z,32.95
2023-06-11T19:27:42.892Z,33.02
2023-06-11T19:30:15.288Z,33.72
2023-06-11T19:32:43.638Z,33.63
2023-06-11T19:35:11.661Z,33.04
2023-06-11T19:37:39.590Z,33.94
2023-06-11T19:40:09.118Z,33.60
2023-06-11T19:42:36.916Z,33.53
2023-06-11T19:45:06.727Z,33.64
2023-06-11T19:47:36.247Z,33.95
2023-06-11T19:50:06.696Z,34.03
2023-06-11T19:52:34.609Z,33.55
2023-06-11T19:55:02.429Z,33.33
2023-06-11T19:57:30.327Z,33.81
2023-06-11T20:00:00.124Z,34.17
2023-06-11T20:02:28.534Z,33.85
2023-06-11T20:04:57.794Z,33.80
2023-06-11T20:07:25.838Z,33.56
2023-06-11T20:09:53.681Z,34.17
2023-06-11T20:12:21.463Z,34.38
2023-06-11T20:14:49.903Z,34.00
2023-06-11T20:17:17.715Z,34.35
2023-06-11T20:19:47.613Z,34.50
2023-06-11T20:22:16.792Z,34.26
2023-06-11T20:24:44.564Z,34.83
2023-06-11T20:27:12.426Z,35.02
2023-06-11T20:29:40.513Z,35.36
2023-06-11T20:32:09.994Z,34.69
2023-06-11T20:34:38.664Z,34.96
2023-06-11T20:37:07.427Z,35.29
2023-06-11T20:39:36.568Z,35.57
2023-06-11T20:42:04.976Z,35.52
2023-06-11T20:44:32.810Z,35.71
2023-06-11T20:47:01.743Z,36.02
2023-06-11T20:49:29.680Z,36.09
2023-06-11T20:51:57.542Z,36.37
2023-06-11T20:54:25.372Z,36.55
2023-06-11T20:56:54.548Z,36.78
2023-06-11T20:59:22.377Z,37.05
2023-06-11T21:01:50.270Z,37.43
2023-06-11T21:04:18.178Z,37.43
2023-06-11T21:06:46.000Z,37.62
2023-06-11T21:09:13.873Z,37.62
2023-06-11T21:11:42.746Z,38.12
2023-06-11T21:14:14.701Z,38.30
2023-06-11T21:16:43.147Z,38.90
2023-06-11T21:19:11.255Z,39.40
2023-06-11T21:21:39.073Z,39.79
2023-06-11T21:24:07.448Z,40.32
2023-06-11T21:26:35.307Z,40.19
2023-06-11T21:29:03.216Z,40.55
2023-06-11T21:31:32.466Z,40.75
2023-06-11T21:34:00.909Z,40.43
2023-06-11T21:36:28.746Z,40.26
2023-06-11T21:38:56.580Z,40.24
2023-06-11T21:41:24.389Z,39.78
2023-06-11T21:43:52.236Z,39.88
2023-06-11T21:46:20.064Z,39.12
2023-06-11T21:48:49.368Z,39.18
2023-06-11T21:51:17.580Z,38.95
2023-06-11T21:53:45.419Z,39.28
2023-06-11T21:56:13.434Z,38.80
2023-06-11T21:58:41.319Z,39.05
2023-06-11T22:01:09.105Z,39.32
2023-06-11T22:03:36.993Z,38.97
2023-06-11T22:06:07.513Z,38.97
2023-06-11T22:08:35.912Z,38.82
2023-06-11T22:11:03.738Z,38.23
2023-06-11T22:13:33.862Z,38.14
2023-06-11T22:16:01.894Z,38.13
2023-06-11T22:18:30.178Z,38.41
2023-06-11T22:20:58.793Z,37.77
2023-06-11T22:23:45.134Z,37.28
2023-06-11T22:26:18.190Z,37.36
2023-06-11T22:28:46.136Z,37.39
2023-06-11T22:31:13.977Z,36.67
2023-06-11T22:33:41.761Z,36.73
2023-06-11T22:36:09.631Z,36.49
2023-06-11T22:38:38.751Z,37.26
2023-06-11T22:41:06.535Z,37.14
2023-06-11T22:43:34.559Z,37.68
2023-06-11T22:46:02.374Z,37.75
2023-06-11T22:48:30.182Z,37.94
2023-06-11T22:50:58.375Z,38.10
2023-06-11T22:53:28.937Z,38.59
2023-06-11T22:55:58.311Z,38.75
2023-06-11T22:58:26.499Z,38.63
2023-06-11T23:00:56.115Z,37.86
2023-06-11T23:03:24.018Z,38.00
2023-06-11T23:05:51.969Z,38.17
2023-06-11T23:08:19.806Z,37.90
2023-06-11T23:10:47.588Z,37.69
2023-06-11T23:13:16.840Z,37.88
2023-06-11T23:15:44.720Z,37.66
2023-06-11T23:18:12.962Z,37.92
2023-06-11T23:20:41.632Z,37.60
2023-06-11T23:23:10.164Z,37.73
2023-06-11T23:25:40.121Z,37.67
2023-06-11T23:28:13.603Z,37.77
2023-06-11T23:30:42.934Z,37.94
2023-06-11T23:33:14.019Z,38.00
2023-06-11T23:35:43.212Z,38.03
2023-06-11T23:38:11.158Z,37.35
2023-06-11T23:40:38.971Z,37.57
2023-06-11T23:43:07.005Z,37.52
2023-06-11T23:45:34.883Z,37.32
2023-06-11T23:48:04.173Z,37.13
2023-06-11T23:50:33.139Z,37.37
2023-06-11T23:53:00.985Z,37.52
2023-06-11T23:55:28.710Z,37.44
2023-06-11T23:58:16.715Z,37.70
